createdAt,value
2022-12-19T00:00:01.267Z,-4.8
2022-12-19T00:10:01.392Z,-4.6
2022-12-19T00:20:01.013Z,-4.5
2022-12-19T00:30:00.287Z,-4.3
2022-12-19T00:40:00.793Z,-4.4
2022-12-19T00:50:01.206Z,-4.3
2022-12-19T01:00:01.282Z,-4.5
2022-12-19T01:30:01.055Z,-4.4
2022-12-19T01:50:00.982Z,-4.3
2022-12-19T02:10:00.973Z,-4.2
2022-12-19T02:30:01.268Z,-4.0
2022-12-19T02:50:01.240Z,-4.0
2022-12-19T03:00:01.142Z,-3.9
2022-12-19T03:10:00.996Z,-3.8
2022-12-19T03:20:01.163Z,-3.8
2022-12-19T03:30:01.178Z,-3.7
2022-12-19T03:40:01.670Z,-3.6
2022-12-19T03:50:00.191Z,-3.7
2022-12-19T04:10:01.267Z,-3.9
2022-12-19T04:20:02.312Z,-3.9
2022-12-19T04:30:01.302Z,-3.8
2022-12-19T04:50:01.258Z,-3.8
2022-12-19T05:10:01.018Z,-4.1
2022-12-19T05:20:01.185Z,-4.1
2022-12-19T05:30:01.655Z,-4.1
2022-12-19T05:50:01.095Z,-3.6
2022-12-19T06:00:01.324Z,-3.5
2022-12-19T06:10:01.392Z,-3.5
2022-12-19T06:30:01.237Z,-3.5
2022-12-19T06:40:00.245Z,-3.2
2022-12-19T06:50:01.006Z,-3.2
2022-12-19T07:10:01.564Z,-2.8
2022-12-19T07:20:01.893Z,-2.7
2022-12-19T07:30:01.181Z,-2.5
2022-12-19T07:50:00.993Z,-2.4
2022-12-19T08:00:03.467Z,-2.3
2022-12-19T08:10:01.340Z,-2.0
2022-12-19T08:20:01.527Z,-1.8
2022-12-19T08:30:01.229Z,-1.7
2022-12-19T08:50:00.196Z,-1.4
2022-12-19T09:00:01.587Z,-1.1
2022-12-19T09:10:00.177Z,-0.8
2022-12-19T09:30:00.974Z,-0.7
2022-12-19T09:40:01.118Z,-0.3
2022-12-19T09:50:02.064Z,-0.3
2022-12-19T10:00:01.909Z,0.2
2022-12-19T10:11:08.974Z,0.3
2022-12-19T10:30:02.241Z,0.7
2022-12-19T10:40:01.027Z,1.0
2022-12-19T10:50:05.604Z,1.2
2022-12-19T11:00:01.372Z,1.1
2022-12-19T11:10:04.619Z,1.2
2022-12-19T11:24:10.769Z,1.3
2022-12-19T11:40:01.119Z,1.2
2022-12-19T11:50:01.069Z,1.2
2022-12-19T12:00:05.195Z,1.1
2022-12-19T12:13:01.632Z,1.0
2022-12-19T12:26:58.079Z,1.1
2022-12-19T12:31:34.768Z,1.0
2022-12-19T12:40:01.066Z,1.1
2022-12-19T12:50:01.085Z,1.2
2022-12-19T13:00:01.120Z,1.4
2022-12-19T13:10:01.081Z,1.3
2022-12-19T13:20:01.017Z,1.3
2022-12-19T13:30:01.488Z,1.2
2022-12-19T13:40:10.672Z,1.3
2022-12-19T13:50:01.913Z,1.3
2022-12-19T14:00:01.689Z,1.4
2022-12-19T14:11:26.405Z,1.5
2022-12-19T14:20:06.851Z,1.7
2022-12-19T14:30:27.034Z,1.6
2022-12-19T14:40:01.478Z,1.8
2022-12-19T14:52:26.016Z,1.8
2022-12-19T15:00:00.170Z,1.8
2022-12-19T15:11:01.414Z,1.8
2022-12-19T15:20:01.422Z,1.8
2022-12-19T15:30:01.254Z,1.8
2022-12-19T15:40:01.349Z,1.8
2022-12-19T15:50:02.984Z,1.8
2022-12-19T16:00:01.731Z,1.8
2022-12-19T16:10:01.513Z,1.8
2022-12-19T16:20:01.000Z,1.8
2022-12-19T16:30:01.267Z,1.8
2022-12-19T16:40:01.069Z,1.8
2022-12-19T16:50:01.290Z,1.8
2022-12-19T17:00:01.301Z,1.8
2022-12-19T17:10:01.071Z,1.8
2022-12-19T17:20:01.599Z,1.8
2022-12-19T17:30:01.456Z,1.8
2022-12-19T17:40:01.461Z,1.8
2022-12-19T17:50:01.324Z,1.8
2022-12-19T18:00:01.360Z,1.8
2022-12-19T18:10:01.885Z,1.8
2022-12-19T18:20:01.557Z,1.8
2022-12-19T18:30:03.179Z,1.8
2022-12-19T18:40:03.752Z,1.8
2022-12-19T18:50:00.184Z,1.8
2022-12-19T19:00:01.552Z,1.8
2022-12-19T19:10:03.438Z,1.8
2022-12-19T19:20:01.407Z,1.8
2022-12-19T19:30:00.975Z,1.8
2022-12-19T19:40:01.400Z,1.8
2022-12-19T19:50:01.080Z,1.8
2022-12-19T20:00:01.526Z,1.8
2022-12-19T20:10:02.031Z,1.8
2022-12-19T20:20:03.423Z,1.8
2022-12-19T20:30:01.370Z,1.8
2022-12-19T20:40:01.401Z,1.8
2022-12-19T20:50:01.132Z,1.8
2022-12-19T21:00:01.094Z,1.8
2022-12-19T21:10:01.016Z,1.8
2022-12-19T21:20:02.624Z,1.8
2022-12-19T21:30:01.046Z,1.8
2022-12-19T21:40:01.360Z,1.8
2022-12-19T21:50:01.271Z,1.8
2022-12-19T22:00:01.371Z,1.8
2022-12-19T22:10:01.040Z,1.8
2022-12-19T22:20:01.148Z,1.8
2022-12-19T22:30:04.985Z,1.8
2022-12-19T22:40:01.258Z,1.8
2022-12-19T22:50:02.812Z,1.8
2022-12-19T23:00:01.676Z,1.8
2022-12-19T23:10:01.467Z,1.8
2022-12-19T23:20:02.129Z,1.8
2022-12-19T23:30:05.057Z,1.8
2022-12-19T23:40:02.372Z,1.8
2022-12-19T23:50:01.397Z,1.8
